sensor_id;sensor_type;location;lat;lon;timestamp;temperature;humidity
4293;DHT22;2160;51.172;6.808;2023-12-20T05:01:14;8.80;99.90
4293;DHT22;2160;51.172;6.808;2023-12-20T05:03:41;8.90;99.90
4293;DHT22;2160;51.172;6.808;2023-12-20T05:06:09;8.80;99.90
4293;DHT22;2160;51.172;6.808;2023-12-20T05:08:39;8.80;99.90
4293;DHT22;2160;51.172;6.808;2023-12-20T05:11:06;8.80;99.90
4293;DHT22;2160;51.172;6.808;2023-12-20T05:13:33;8.70;99.90
4293;DHT22;2160;51.172;6.808;2023-12-20T05:16:00;8.60;99.90
4293;DHT22;2160;51.172;6.808;2023-12-20T05:18:29;8.50;99.90
4293;DHT22;2160;51.172;6.808;2023-12-20T05:20:56;8.50;99.90
4293;DHT22;2160;51.172;6.808;2023-12-20T05:23:23;8.40;99.90
4293;DHT22;2160;51.172;6.808;2023-12-20T05:25:50;8.50;99.90
4293;DHT22;2160;51.172;6.808;2023-12-20T05:28:17;8.50;99.90
4293;DHT22;2160;51.172;6.808;2023-12-20T05:30:44;8.50;99.90
4293;DHT22;2160;51.172;6.808;2023-12-20T05:33:11;8.50;99.90
4293;DHT22;2160;51.172;6.808;2023-12-20T05:35:39;8.70;99.90
4293;DHT22;2160;51.172;6.808;2023-12-20T05:38:06;8.50;99.90
4293;DHT22;2160;51.172;6.808;2023-12-20T05:40:33;8.60;99.90
4293;DHT22;2160;51.172;6.808;2023-12-20T05:43:00;8.60;99.90
4293;DHT22;2160;51.172;6.808;2023-12-20T05:45:28;8.60;99.90
4293;DHT22;2160;51.172;6.808;2023-12-20T05:47:55;8.60;99.90
4293;DHT22;2160;51.172;6.808;2023-12-20T05:50:22;8.70;99.90
4293;DHT22;2160;51.172;6.808;2023-12-20T05:52:50;8.70;99.90
4293;DHT22;2160;51.172;6.808;2023-12-20T05:55:17;8.70;99.90
4293;DHT22;2160;51.172;6.808;2023-12-20T05:57:44;8.70;99.90
4293;DHT22;2160;51.172;6.808;2023-12-20T06:00:12;8.70;99.90
4293;DHT22;2160;51.172;6.808;2023-12-20T06:02:39;8.70;99.90
4293;DHT22;2160;51.172;6.808;2023-12-20T06:05:07;8.80;99.90
4293;DHT22;2160;51.172;6.808;2023-12-20T06:07:34;8.70;99.90
4293;DHT22;2160;51.172;6.808;2023-12-20T06:10:02;8.90;99.90
4293;DHT22;2160;51.172;6.808;2023-12-20T06:12:29;8.80;99.90
4293;DHT22;2160;51.172;6.808;2023-12-20T06:14:59;8.80;99.90
4293;DHT22;2160;51.172;6.808;2023-12-20T06:17:25;8.90;99.90
4293;DHT22;2160;51.172;6.808;2023-12-20T06:19:52;8.80;99.90
4293;DHT22;2160;51.172;6.808;2023-12-20T06:22:19;8.90;99.90
4293;DHT22;2160;51.172;6.808;2023-12-20T06:24:46;8.90;99.90
4293;DHT22;2160;51.172;6.808;2023-12-20T06:27:15;8.90;99.90
4293;DHT22;2160;51.172;6.808;2023-12-20T06:29:41;8.80;99.90
4293;DHT22;2160;51.172;6.808;2023-12-20T06:32:09;8.80;99.90
4293;DHT22;2160;51.172;6.808;2023-12-20T06:34:36;8.80;99.90
4293;DHT22;2160;51.172;6.808;2023-12-20T06:37:04;8.80;99.90
4293;DHT22;2160;51.172;6.808;2023-12-20T06:39:31;8.80;99.90
4293;DHT22;2160;51.172;6.808;2023-12-20T06:41:59;8.90;99.90
4293;DHT22;2160;51.172;6.808;2023-12-20T06:44:28;9.10;99.90
4293;DHT22;2160;51.172;6.808;2023-12-20T06:46:55;9.00;99.90
4293;DHT22;2160;51.172;6.808;2023-12-20T06:49:22;9.00;99.90
4293;DHT22;2160;51.172;6.808;2023-12-20T06:51:48;9.10;99.90
4293;DHT22;2160;51.172;6.808;2023-12-20T06:54:15;8.90;99.90
4293;DHT22;2160;51.172;6.808;2023-12-20T06:56:42;8.80;99.90
4293;DHT22;2160;51.172;6.808;2023-12-20T06:59:09;9.00;99.90
4293;DHT22;2160;51.172;6.808;2023-12-20T07:01:38;9.00;99.90
4293;DHT22;2160;51.172;6.808;2023-12-20T07:04:05;9.00;99.90
4293;DHT22;2160;51.172;6.808;2023-12-20T07:06:31;8.90;99.90
4293;DHT22;2160;51.172;6.808;2023-12-20T07:08:58;8.90;99.90
4293;DHT22;2160;51.172;6.808;2023-12-20T07:11:25;9.10;99.90
4293;DHT22;2160;51.172;6.808;2023-12-20T07:13:52;9.10;99.90
4293;DHT22;2160;51.172;6.808;2023-12-20T07:16:20;9.10;99.90
4293;DHT22;2160;51.172;6.808;2023-12-20T07:18:49;9.10;99.90
4293;DHT22;2160;51.172;6.808;2023-12-20T07:21:18;9.10;99.90
4293;DHT22;2160;51.172;6.808;2023-12-20T07:23:44;9.10;99.90
4293;DHT22;2160;51.172;6.808;2023-12-20T07:26:11;9.10;99.90
4293;DHT22;2160;51.172;6.808;2023-12-20T07:28:41;9.10;99.90
4293;DHT22;2160;51.172;6.808;2023-12-20T07:31:08;9.10;99.90
4293;DHT22;2160;51.172;6.808;2023-12-20T07:33:35;9.10;99.90
4293;DHT22;2160;51.172;6.808;2023-12-20T07:36:04;9.40;99.90
4293;DHT22;2160;51.172;6.808;2023-12-20T07:38:31;9.20;99.90
4293;DHT22;2160;51.172;6.808;2023-12-20T07:40:58;9.20;99.90
4293;DHT22;2160;51.172;6.808;2023-12-20T07:43:24;9.20;99.90
4293;DHT22;2160;51.172;6.808;2023-12-20T07:45:51;9.20;99.90
4293;DHT22;2160;51.172;6.808;2023-12-20T07:48:18;9.10;99.90
4293;DHT22;2160;51.172;6.808;2023-12-20T07:50:45;9.30;99.90
4293;DHT22;2160;51.172;6.808;2023-12-20T07:53:14;9.20;99.90
4293;DHT22;2160;51.172;6.808;2023-12-20T07:55:41;9.40;99.90
4293;DHT22;2160;51.172;6.808;2023-12-20T07:58:08;9.20;99.90
4293;DHT22;2160;51.172;6.808;2023-12-20T08:00:36;9.30;99.90
4293;DHT22;2160;51.172;6.808;2023-12-20T08:03:04;9.30;99.90
4293;DHT22;2160;51.172;6.808;2023-12-20T08:05:31;9.20;99.90
4293;DHT22;2160;51.172;6.808;2023-12-20T08:07:58;9.10;99.90
4293;DHT22;2160;51.172;6.808;2023-12-20T08:10:26;9.10;99.90
4293;DHT22;2160;51.172;6.808;2023-12-20T08:12:55;9.10;99.90
4293;DHT22;2160;51.172;6.808;2023-12-20T08:15:22;9.20;99.90
4293;DHT22;2160;51.172;6.808;2023-12-20T08:17:49;9.10;99.90
4293;DHT22;2160;51.172;6.808;2023-12-20T08:20:16;9.20;99.90
4293;DHT22;2160;51.172;6.808;2023-12-20T08:22:43;9.10;99.90
4293;DHT22;2160;51.172;6.808;2023-12-20T08:25:10;9.10;99.90
4293;DHT22;2160;51.172;6.808;2023-12-20T08:27:40;9.10;99.90
4293;DHT22;2160;51.172;6.808;2023-12-20T08:30:09;9.10;99.90
4293;DHT22;2160;51.172;6.808;2023-12-20T08:32:36;9.10;99.90
4293;DHT22;2160;51.172;6.808;2023-12-20T08:35:03;9.10;99.90
4293;DHT22;2160;51.172;6.808;2023-12-20T08:37:31;9.30;99.90
4293;DHT22;2160;51.172;6.808;2023-12-20T08:39:58;9.20;99.90
4293;DHT22;2160;51.172;6.808;2023-12-20T08:42:25;9.40;99.90
4293;DHT22;2160;51.172;6.808;2023-12-20T08:44:58;9.30;99.90
4293;DHT22;2160;51.172;6.808;2023-12-20T08:47:25;9.50;99.90
4293;DHT22;2160;51.172;6.808;2023-12-20T08:49:52;9.20;99.90
4293;DHT22;2160;51.172;6.808;2023-12-20T08:52:22;9.10;99.90
4293;DHT22;2160;51.172;6.808;2023-12-20T08:54:49;9.00;99.90
4293;DHT22;2160;51.172;6.808;2023-12-20T08:57:17;9.20;99.90
4293;DHT22;2160;51.172;6.808;2023-12-20T08:59:44;9.20;99.90
4293;DHT22;2160;51.172;6.808;2023-12-20T09:02:13;9.30;99.90
4293;DHT22;2160;51.172;6.808;2023-12-20T09:04:41;9.30;99.90
4293;DHT22;2160;51.172;6.808;2023-12-20T09:07:21;9.20;99.90
4293;DHT22;2160;51.172;6.808;2023-12-20T09:09:47;9.40;99.90
4293;DHT22;2160;51.172;6.808;2023-12-20T09:12:14;9.40;99.90
4293;DHT22;2160;51.172;6.808;2023-12-20T09:14:41;9.50;99.90
4293;DHT22;2160;51.172;6.808;2023-12-20T09:17:08;9.40;99.90
4293;DHT22;2160;51.172;6.808;2023-12-20T09:19:38;9.40;99.90
4293;DHT22;2160;51.172;6.808;2023-12-20T09:22:06;9.30;99.90
4293;DHT22;2160;51.172;6.808;2023-12-20T09:24:33;9.60;99.90
4293;DHT22;2160;51.172;6.808;2023-12-20T09:27:00;9.40;99.90
4293;DHT22;2160;51.172;6.808;2023-12-20T09:29:28;9.50;99.90
4293;DHT22;2160;51.172;6.808;2023-12-20T09:31:55;9.70;99.90
4293;DHT22;2160;51.172;6.808;2023-12-20T09:34:23;9.50;99.90
4293;DHT22;2160;51.172;6.808;2023-12-20T09:36:52;9.60;99.90
4293;DHT22;2160;51.172;6.808;2023-12-20T09:39:20;9.50;99.90
4293;DHT22;2160;51.172;6.808;2023-12-20T09:41:56;9.70;99.90
4293;DHT22;2160;51.172;6.808;2023-12-20T09:44:24;9.60;99.90
4293;DHT22;2160;51.172;6.808;2023-12-20T09:46:53;9.80;99.90
4293;DHT22;2160;51.172;6.808;2023-12-20T09:49:21;9.80;99.90
4293;DHT22;2160;51.172;6.808;2023-12-20T09:51:52;9.50;99.90
4293;DHT22;2160;51.172;6.808;2023-12-20T09:54:20;9.60;99.90
4293;DHT22;2160;51.172;6.808;2023-12-20T09:56:48;9.60;99.90
4293;DHT22;2160;51.172;6.808;2023-12-20T09:59:16;9.60;99.90
4293;DHT22;2160;51.172;6.808;2023-12-20T10:01:43;9.70;99.90
4293;DHT22;2160;51.172;6.808;2023-12-20T10:04:12;9.70;99.90
4293;DHT22;2160;51.172;6.808;2023-12-20T10:06:39;9.70;99.90
4293;DHT22;2160;51.172;6.808;2023-12-20T10:09:08;9.50;99.90
4293;DHT22;2160;51.172;6.808;2023-12-20T10:11:35;9.50;99.90
4293;DHT22;2160;51.172;6.808;2023-12-20T10:14:03;9.70;99.90
4293;DHT22;2160;51.172;6.808;2023-12-20T10:16:30;9.50;99.90
4293;DHT22;2160;51.172;6.808;2023-12-20T10:18:58;9.60;99.90
4293;DHT22;2160;51.172;6.808;2023-12-20T10:21:27;9.60;99.90
4293;DHT22;2160;51.172;6.808;2023-12-20T10:23:54;9.60;99.90
4293;DHT22;2160;51.172;6.808;2023-12-20T10:26:23;9.70;99.90
4293;DHT22;2160;51.172;6.808;2023-12-20T10:28:52;9.80;99.90
4293;DHT22;2160;51.172;6.808;2023-12-20T10:31:27;10.10;99.90
4293;DHT22;2160;51.172;6.808;2023-12-20T10:33:56;9.80;99.90
4293;DHT22;2160;51.172;6.808;2023-12-20T10:36:24;9.80;99.90
4293;DHT22;2160;51.172;6.808;2023-12-20T10:38:53;9.80;99.90
4293;DHT22;2160;51.172;6.808;2023-12-20T10:41:26;9.60;99.90
4293;DHT22;2160;51.172;6.808;2023-12-20T10:43:56;9.80;99.90
4293;DHT22;2160;51.172;6.808;2023-12-20T10:46:26;9.60;99.90
4293;DHT22;2160;51.172;6.808;2023-12-20T10:48:54;9.50;99.90
4293;DHT22;2160;51.172;6.808;2023-12-20T10:51:22;9.60;99.90
4293;DHT22;2160;51.172;6.808;2023-12-20T10:53:51;9.70;99.90
4293;DHT22;2160;51.172;6.808;2023-12-20T10:56:19;9.80;99.90
4293;DHT22;2160;51.172;6.808;2023-12-20T10:58:49;9.80;99.90
4293;DHT22;2160;51.172;6.808;2023-12-20T11:01:17;9.90;99.90
4293;DHT22;2160;51.172;6.808;2023-12-20T11:03:48;10.00;99.90
4293;DHT22;2160;51.172;6.808;2023-12-20T11:06:24;10.00;99.90
4293;DHT22;2160;51.172;6.808;2023-12-20T11:08:59;10.00;99.90
4293;DHT22;2160;51.172;6.808;2023-12-20T11:11:38;10.10;99.90
4293;DHT22;2160;51.172;6.808;2023-12-20T11:14:14;10.10;99.90
4293;DHT22;2160;51.172;6.808;2023-12-20T11:16:43;9.80;99.90
4293;DHT22;2160;51.172;6.808;2023-12-20T11:19:11;9.90;99.90
4293;DHT22;2160;51.172;6.808;2023-12-20T11:21:40;9.80;99.90
4293;DHT22;2160;51.172;6.808;2023-12-20T11:24:07;9.70;99.90
4293;DHT22;2160;51.172;6.808;2023-12-20T11:26:34;9.80;99.90
4293;DHT22;2160;51.172;6.808;2023-12-20T11:29:33;9.80;99.90
4293;DHT22;2160;51.172;6.808;2023-12-20T11:32:27;9.80;99.90
4293;DHT22;2160;51.172;6.808;2023-12-20T11:34:55;9.80;99.90
4293;DHT22;2160;51.172;6.808;2023-12-20T11:37:28;9.80;99.90
4293;DHT22;2160;51.172;6.808;2023-12-20T11:39:56;9.70;99.90
4293;DHT22;2160;51.172;6.808;2023-12-20T11:42:27;9.80;99.90
4293;DHT22;2160;51.172;6.808;2023-12-20T11:44:56;9.90;99.90
4293;DHT22;2160;51.172;6.808;2023-12-20T11:47:23;9.80;99.90
4293;DHT22;2160;51.172;6.808;2023-12-20T11:49:51;9.90;99.90
4293;DHT22;2160;51.172;6.808;2023-12-20T11:52:17;9.80;99.90
4293;DHT22;2160;51.172;6.808;2023-12-20T11:54:44;9.90;99.90
4293;DHT22;2160;51.172;6.808;2023-12-20T11:57:12;9.90;99.90
4293;DHT22;2160;51.172;6.808;2023-12-20T11:59:39;10.20;99.90
4293;DHT22;2160;51.172;6.808;2023-12-20T12:02:07;10.10;99.90
4293;DHT22;2160;51.172;6.808;2023-12-20T12:04:34;10.10;99.90
4293;DHT22;2160;51.172;6.808;2023-12-20T12:07:01;10.20;99.90
4293;DHT22;2160;51.172;6.808;2023-12-20T12:09:29;10.20;99.90
4293;DHT22;2160;51.172;6.808;2023-12-20T12:11:56;10.30;99.90
4293;DHT22;2160;51.172;6.808;2023-12-20T12:14:23;10.40;99.90
4293;DHT22;2160;51.172;6.808;2023-12-20T12:16:50;10.30;99.90
4293;DHT22;2160;51.172;6.808;2023-12-20T12:19:24;10.40;99.90
4293;DHT22;2160;51.172;6.808;2023-12-20T12:21:51;10.40;99.90
4293;DHT22;2160;51.172;6.808;2023-12-20T12:24:20;10.30;99.90
4293;DHT22;2160;51.172;6.808;2023-12-20T12:26:50;10.20;99.90
4293;DHT22;2160;51.172;6.808;2023-12-20T12:29:17;10.20;99.90
4293;DHT22;2160;51.172;6.808;2023-12-20T12:31:44;10.10;99.90
4293;DHT22;2160;51.172;6.808;2023-12-20T12:34:11;10.00;99.90
4293;DHT22;2160;51.172;6.808;2023-12-20T12:36:41;10.10;99.90
4293;DHT22;2160;51.172;6.808;2023-12-20T12:39:08;10.50;99.90
4293;DHT22;2160;51.172;6.808;2023-12-20T12:41:35;10.20;99.90
4293;DHT22;2160;51.172;6.808;2023-12-20T12:44:02;10.10;99.90
4293;DHT22;2160;51.172;6.808;2023-12-20T12:46:29;10.20;99.90
4293;DHT22;2160;51.172;6.808;2023-12-20T12:48:56;10.30;99.90
4293;DHT22;2160;51.172;6.808;2023-12-20T12:51:23;10.20;99.90
4293;DHT22;2160;51.172;6.808;2023-12-20T12:53:52;10.30;99.90
4293;DHT22;2160;51.172;6.808;2023-12-20T12:56:19;10.20;99.90
4293;DHT22;2160;51.172;6.808;2023-12-20T12:58:47;10.30;99.90
4293;DHT22;2160;51.172;6.808;2023-12-20T13:01:14;10.20;99.90
4293;DHT22;2160;51.172;6.808;2023-12-20T13:03:41;10.10;99.90
4293;DHT22;2160;51.172;6.808;2023-12-20T13:06:10;10.10;99.90
4293;DHT22;2160;51.172;6.808;2023-12-20T13:08:37;9.90;99.90
4293;DHT22;2160;51.172;6.808;2023-12-20T13:11:05;9.80;99.90
4293;DHT22;2160;51.172;6.808;2023-12-20T13:13:32;9.90;99.90
4293;DHT22;2160;51.172;6.808;2023-12-20T13:15:59;10.10;99.90
4293;DHT22;2160;51.172;6.808;2023-12-20T13:18:26;10.00;99.90
4293;DHT22;2160;51.172;6.808;2023-12-20T13:20:54;10.00;99.90
4293;DHT22;2160;51.172;6.808;2023-12-20T13:23:21;9.80;99.90
4293;DHT22;2160;51.172;6.808;2023-12-20T13:25:48;9.90;99.90
4293;DHT22;2160;51.172;6.808;2023-12-20T13:28:16;10.10;99.90
4293;DHT22;2160;51.172;6.808;2023-12-20T13:30:43;10.20;99.90
4293;DHT22;2160;51.172;6.808;2023-12-20T13:33:11;10.10;99.90
4293;DHT22;2160;51.172;6.808;2023-12-20T13:35:38;9.90;99.90
4293;DHT22;2160;51.172;6.808;2023-12-20T13:38:05;10.40;99.90
4293;DHT22;2160;51.172;6.808;2023-12-20T13:40:33;10.40;99.90
4293;DHT22;2160;51.172;6.808;2023-12-20T13:43:00;10.40;99.90
4293;DHT22;2160;51.172;6.808;2023-12-20T13:45:30;10.20;99.90
4293;DHT22;2160;51.172;6.808;2023-12-20T13:47:57;10.00;99.90
4293;DHT22;2160;51.172;6.808;2023-12-20T13:50:25;10.10;99.90
4293;DHT22;2160;51.172;6.808;2023-12-20T13:52:53;10.00;99.90
4293;DHT22;2160;51.172;6.808;2023-12-20T13:55:20;10.10;99.90
4293;DHT22;2160;51.172;6.808;2023-12-20T13:57:47;10.20;99.90
4293;DHT22;2160;51.172;6.808;2023-12-20T14:00:15;10.30;99.90
4293;DHT22;2160;51.172;6.808;2023-12-20T14:02:44;10.40;99.90
4293;DHT22;2160;51.172;6.808;2023-12-20T14:05:12;10.30;99.90
4293;DHT22;2160;51.172;6.808;2023-12-20T14:07:40;10.30;99.90
4293;DHT22;2160;51.172;6.808;2023-12-20T14:10:11;10.30;99.90
4293;DHT22;2160;51.172;6.808;2023-12-20T14:12:38;10.10;99.90
4293;DHT22;2160;51.172;6.808;2023-12-20T14:15:06;10.20;99.90
4293;DHT22;2160;51.172;6.808;2023-12-20T14:17:36;10.10;99.90
4293;DHT22;2160;51.172;6.808;2023-12-20T14:20:06;10.10;99.90
4293;DHT22;2160;51.172;6.808;2023-12-20T14:22:34;10.20;99.90
4293;DHT22;2160;51.172;6.808;2023-12-20T14:25:01;10.00;99.90
4293;DHT22;2160;51.172;6.808;2023-12-20T14:27:28;10.10;99.90
4293;DHT22;2160;51.172;6.808;2023-12-20T14:29:55;9.90;99.90
4293;DHT22;2160;51.172;6.808;2023-12-20T14:32:23;10.30;99.90
4293;DHT22;2160;51.172;6.808;2023-12-20T14:34:52;10.20;99.90
4293;DHT22;2160;51.172;6.808;2023-12-20T14:37:21;10.30;99.90
4293;DHT22;2160;51.172;6.808;2023-12-20T14:39:48;10.30;99.90
4293;DHT22;2160;51.172;6.808;2023-12-20T14:42:15;10.30;99.90
4293;DHT22;2160;51.172;6.808;2023-12-20T14:44:42;10.30;99.90
4293;DHT22;2160;51.172;6.808;2023-12-20T14:47:10;10.20;99.90
4293;DHT22;2160;51.172;6.808;2023-12-20T14:49:37;10.10;99.90
4293;DHT22;2160;51.172;6.808;2023-12-20T14:52:04;10.10;99.90
4293;DHT22;2160;51.172;6.808;2023-12-20T14:54:32;10.10;99.90
4293;DHT22;2160;51.172;6.808;2023-12-20T14:56:59;10.10;99.90
4293;DHT22;2160;51.172;6.808;2023-12-20T14:59:26;10.10;99.90
4293;DHT22;2160;51.172;6.808;2023-12-20T15:01:53;10.20;99.90
4293;DHT22;2160;51.172;6.808;2023-12-20T15:04:20;10.30;99.90
4293;DHT22;2160;51.172;6.808;2023-12-20T15:06:54;10.30;99.90
4293;DHT22;2160;51.172;6.808;2023-12-20T15:09:21;10.40;99.90
4293;DHT22;2160;51.172;6.808;2023-12-20T15:11:49;10.40;99.90
4293;DHT22;2160;51.172;6.808;2023-12-20T15:14:16;10.30;99.90
4293;DHT22;2160;51.172;6.808;2023-12-20T15:16:45;10.70;99.90
4293;DHT22;2160;51.172;6.808;2023-12-20T15:19:13;10.50;99.90
4293;DHT22;2160;51.172;6.808;2023-12-20T15:21:40;10.50;99.90
4293;DHT22;2160;51.172;6.808;2023-12-20T15:24:08;10.60;99.90
4293;DHT22;2160;51.172;6.808;2023-12-20T15:26:41;10.40;99.90
4293;DHT22;2160;51.172;6.808;2023-12-20T15:29:10;10.40;99.90
4293;DHT22;2160;51.172;6.808;2023-12-20T15:31:42;10.50;99.90
4293;DHT22;2160;51.172;6.808;2023-12-20T15:34:09;10.50;99.90
4293;DHT22;2160;51.172;6.808;2023-12-20T15:36:36;10.60;99.90
4293;DHT22;2160;51.172;6.808;2023-12-20T15:39:04;10.50;99.90
4293;DHT22;2160;51.172;6.808;2023-12-20T15:41:34;10.30;99.90
4293;DHT22;2160;51.172;6.808;2023-12-20T15:44:01;10.40;99.90
4293;DHT22;2160;51.172;6.808;2023-12-20T15:46:29;10.40;99.90
4293;DHT22;2160;51.172;6.808;2023-12-20T15:48:56;10.60;99.90
4293;DHT22;2160;51.172;6.808;2023-12-20T15:51:23;10.50;99.90
4293;DHT22;2160;51.172;6.808;2023-12-20T15:53:50;10.40;99.90
4293;DHT22;2160;51.172;6.808;2023-12-20T15:56:17;10.40;99.90
4293;DHT22;2160;51.172;6.808;2023-12-20T15:58:45;10.40;99.90
4293;DHT22;2160;51.172;6.808;2023-12-20T16:01:13;10.40;99.90
4293;DHT22;2160;51.172;6.808;2023-12-20T16:03:41;10.50;99.90
4293;DHT22;2160;51.172;6.808;2023-12-20T16:06:09;10.50;99.90
4293;DHT22;2160;51.172;6.808;2023-12-20T16:08:36;10.60;99.90
4293;DHT22;2160;51.172;6.808;2023-12-20T16:11:03;10.60;99.90
4293;DHT22;2160;51.172;6.808;2023-12-20T16:13:30;10.50;99.90
4293;DHT22;2160;51.172;6.808;2023-12-20T16:15:57;10.50;99.90
4293;DHT22;2160;51.172;6.808;2023-12-20T16:18:24;10.50;99.90
4293;DHT22;2160;51.172;6.808;2023-12-20T16:20:55;10.50;99.90
4293;DHT22;2160;51.172;6.808;2023-12-20T16:23:23;10.60;99.90
4293;DHT22;2160;51.172;6.808;2023-12-20T16:25:50;10.30;99.90
4293;DHT22;2160;51.172;6.808;2023-12-20T16:28:17;10.40;99.90
4293;DHT22;2160;51.172;6.808;2023-12-20T16:30:43;10.40;99.90
4293;DHT22;2160;51.172;6.808;2023-12-20T16:33:11;10.40;99.90
4293;DHT22;2160;51.172;6.808;2023-12-20T16:35:38;10.50;99.90
4293;DHT22;2160;51.172;6.808;2023-12-20T16:38:06;10.60;99.90
4293;DHT22;2160;51.172;6.808;2023-12-20T16:40:33;10.40;99.90
4293;DHT22;2160;51.172;6.808;2023-12-20T16:43:00;10.30;99.90
4293;DHT22;2160;51.172;6.808;2023-12-20T16:45:29;10.50;99.90
4293;DHT22;2160;51.172;6.808;2023-12-20T16:47:56;10.50;99.90
4293;DHT22;2160;51.172;6.808;2023-12-20T16:50:23;10.60;99.90
4293;DHT22;2160;51.172;6.808;2023-12-20T16:52:50;10.60;99.90
4293;DHT22;2160;51.172;6.808;2023-12-20T16:55:19;10.70;99.90
4293;DHT22;2160;51.172;6.808;2023-12-20T16:57:46;10.50;99.90
4293;DHT22;2160;51.172;6.808;2023-12-20T17:00:15;10.50;99.90
4293;DHT22;2160;51.172;6.808;2023-12-20T17:02:42;10.60;99.90
4293;DHT22;2160;51.172;6.808;2023-12-20T17:05:09;11.00;99.90
4293;DHT22;2160;51.172;6.808;2023-12-20T17:07:36;10.90;99.90
4293;DHT22;2160;51.172;6.808;2023-12-20T17:10:03;11.00;99.90
4293;DHT22;2160;51.172;6.808;2023-12-20T17:12:32;11.00;99.90
4293;DHT22;2160;51.172;6.808;2023-12-20T17:14:59;10.80;99.90
4293;DHT22;2160;51.172;6.808;2023-12-20T17:17:26;10.60;99.90
4293;DHT22;2160;51.172;6.808;2023-12-20T17:19:53;10.50;99.90
4293;DHT22;2160;51.172;6.808;2023-12-20T17:22:20;10.40;99.90
4293;DHT22;2160;51.172;6.808;2023-12-20T17:24:48;10.40;99.90
4293;DHT22;2160;51.172;6.808;2023-12-20T17:27:15;10.40;99.90
4293;DHT22;2160;51.172;6.808;2023-12-20T17:29:43;10.50;99.90
4293;DHT22;2160;51.172;6.808;2023-12-20T17:32:11;10.50;99.90
4293;DHT22;2160;51.172;6.808;2023-12-20T17:34:38;10.70;99.90
4293;DHT22;2160;51.172;6.808;2023-12-20T17:37:07;10.70;99.90
4293;DHT22;2160;51.172;6.808;2023-12-20T17:39:34;10.50;99.90
4293;DHT22;2160;51.172;6.808;2023-12-20T17:42:03;10.70;99.90
4293;DHT22;2160;51.172;6.808;2023-12-20T17:44:30;10.60;99.90
4293;DHT22;2160;51.172;6.808;2023-12-20T17:46:59;10.60;99.90
4293;DHT22;2160;51.172;6.808;2023-12-20T17:49:26;10.50;99.90
4293;DHT22;2160;51.172;6.808;2023-12-20T17:51:53;10.50;99.90
4293;DHT22;2160;51.172;6.808;2023-12-20T17:54:21;10.40;99.90
4293;DHT22;2160;51.172;6.808;2023-12-20T17:56:49;10.60;99.90
4293;DHT22;2160;51.172;6.808;2023-12-20T17:59:16;10.30;99.90
4293;DHT22;2160;51.172;6.808;2023-12-20T18:01:43;10.50;99.90
4293;DHT22;2160;51.172;6.808;2023-12-20T18:04:11;10.40;99.90
4293;DHT22;2160;51.172;6.808;2023-12-20T18:06:37;10.70;99.90
4293;DHT22;2160;51.172;6.808;2023-12-20T18:09:04;10.50;99.90
4293;DHT22;2160;51.172;6.808;2023-12-20T18:11:31;10.60;99.90
4293;DHT22;2160;51.172;6.808;2023-12-20T18:13:58;10.40;99.90
4293;DHT22;2160;51.172;6.808;2023-12-20T18:16:25;10.40;99.90
4293;DHT22;2160;51.172;6.808;2023-12-20T18:18:52;10.60;99.90
4293;DHT22;2160;51.172;6.808;2023-12-20T18:21:20;10.70;99.90
4293;DHT22;2160;51.172;6.808;2023-12-20T18:23:47;10.60;99.90
4293;DHT22;2160;51.172;6.808;2023-12-20T18:26:14;10.50;99.90
4293;DHT22;2160;51.172;6.808;2023-12-20T18:28:41;10.70;99.90
4293;DHT22;2160;51.172;6.808;2023-12-20T18:31:08;10.90;99.90
4293;DHT22;2160;51.172;6.808;2023-12-20T18:33:35;10.90;99.90
4293;DHT22;2160;51.172;6.808;2023-12-20T18:36:03;10.80;99.90
4293;DHT22;2160;51.172;6.808;2023-12-20T18:38:32;10.70;99.90
4293;DHT22;2160;51.172;6.808;2023-12-20T18:40:59;10.60;99.90
4293;DHT22;2160;51.172;6.808;2023-12-20T18:43:26;10.60;99.90
4293;DHT22;2160;51.172;6.808;2023-12-20T18:45:53;10.60;99.90
4293;DHT22;2160;51.172;6.808;2023-12-20T18:48:20;10.50;99.90
4293;DHT22;2160;51.172;6.808;2023-12-20T18:50:47;10.50;99.90
4293;DHT22;2160;51.172;6.808;2023-12-20T18:53:14;10.80;99.90
4293;DHT22;2160;51.172;6.808;2023-12-20T18:55:43;10.90;99.90
4293;DHT22;2160;51.172;6.808;2023-12-20T18:58:11;11.00;99.90
4293;DHT22;2160;51.172;6.808;2023-12-20T19:00:39;10.90;99.90
4293;DHT22;2160;51.172;6.808;2023-12-20T19:03:06;11.00;99.90
4293;DHT22;2160;51.172;6.808;2023-12-20T19:05:34;10.90;99.90
4293;DHT22;2160;51.172;6.808;2023-12-20T19:08:01;10.90;99.90
4293;DHT22;2160;51.172;6.808;2023-12-20T19:10:27;10.70;99.90
4293;DHT22;2160;51.172;6.808;2023-12-20T19:12:56;10.90;99.90
4293;DHT22;2160;51.172;6.808;2023-12-20T19:15:23;10.90;99.90
4293;DHT22;2160;51.172;6.808;2023-12-20T19:17:50;11.00;99.90
4293;DHT22;2160;51.172;6.808;2023-12-20T19:20:17;11.00;99.90
4293;DHT22;2160;51.172;6.808;2023-12-20T19:22:44;10.90;99.90
4293;DHT22;2160;51.172;6.808;2023-12-20T19:25:12;11.20;99.90
4293;DHT22;2160;51.172;6.808;2023-12-20T19:27:41;11.30;99.90
4293;DHT22;2160;51.172;6.808;2023-12-20T19:30:11;11.00;99.90
4293;DHT22;2160;51.172;6.808;2023-12-20T19:32:39;11.00;99.90
4293;DHT22;2160;51.172;6.808;2023-12-20T19:35:06;11.00;99.90
4293;DHT22;2160;51.172;6.808;2023-12-20T19:37:34;11.00;99.90
4293;DHT22;2160;51.172;6.808;2023-12-20T19:40:01;11.00;99.90
4293;DHT22;2160;51.172;6.808;2023-12-20T19:42:28;11.10;99.90
4293;DHT22;2160;51.172;6.808;2023-12-20T19:44:56;10.90;99.90
4293;DHT22;2160;51.172;6.808;2023-12-20T19:47:25;11.30;99.90
4293;DHT22;2160;51.172;6.808;2023-12-20T19:49:52;11.00;99.90
4293;DHT22;2160;51.172;6.808;2023-12-20T19:52:19;11.00;99.90
4293;DHT22;2160;51.172;6.808;2023-12-20T19:54:47;10.80;99.90
4293;DHT22;2160;51.172;6.808;2023-12-20T19:57:14;11.00;99.90
4293;DHT22;2160;51.172;6.808;2023-12-20T19:59:41;11.00;99.90
4293;DHT22;2160;51.172;6.808;2023-12-20T20:02:09;11.10;99.90
4293;DHT22;2160;51.172;6.808;2023-12-20T20:04:37;11.20;99.90
4293;DHT22;2160;51.172;6.808;2023-12-20T20:07:04;11.20;99.90
4293;DHT22;2160;51.172;6.808;2023-12-20T20:09:35;11.10;99.90
4293;DHT22;2160;51.172;6.808;2023-12-20T20:12:02;11.20;99.90
4293;DHT22;2160;51.172;6.808;2023-12-20T20:14:29;11.20;99.90
4293;DHT22;2160;51.172;6.808;2023-12-20T20:16:56;11.10;99.90
4293;DHT22;2160;51.172;6.808;2023-12-20T20:19:25;11.30;99.90
4293;DHT22;2160;51.172;6.808;2023-12-20T20:21:54;11.20;99.90
4293;DHT22;2160;51.172;6.808;2023-12-20T20:24:21;11.20;99.90
4293;DHT22;2160;51.172;6.808;2023-12-20T20:26:49;10.90;99.90
4293;DHT22;2160;51.172;6.808;2023-12-20T20:29:19;11.00;99.90
4293;DHT22;2160;51.172;6.808;2023-12-20T20:31:46;11.10;99.90
4293;DHT22;2160;51.172;6.808;2023-12-20T20:34:13;11.10;99.90
4293;DHT22;2160;51.172;6.808;2023-12-20T20:36:40;11.00;99.90
4293;DHT22;2160;51.172;6.808;2023-12-20T20:39:09;11.40;99.90
4293;DHT22;2160;51.172;6.808;2023-12-20T20:41:38;10.90;99.90
4293;DHT22;2160;51.172;6.808;2023-12-20T20:44:05;10.90;99.90
4293;DHT22;2160;51.172;6.808;2023-12-20T20:46:38;10.90;99.90
4293;DHT22;2160;51.172;6.808;2023-12-20T20:49:05;10.80;99.90
4293;DHT22;2160;51.172;6.808;2023-12-20T20:51:32;10.60;99.90
4293;DHT22;2160;51.172;6.808;2023-12-20T20:53:59;10.70;99.90
4293;DHT22;2160;51.172;6.808;2023-12-20T20:56:27;10.90;99.90
4293;DHT22;2160;51.172;6.808;2023-12-20T20:58:54;11.00;99.90
4293;DHT22;2160;51.172;6.808;2023-12-20T21:01:21;10.90;99.90
4293;DHT22;2160;51.172;6.808;2023-12-20T21:03:48;10.80;99.90
4293;DHT22;2160;51.172;6.808;2023-12-20T21:06:15;10.60;99.90
4293;DHT22;2160;51.172;6.808;2023-12-20T21:08:42;10.60;99.90
4293;DHT22;2160;51.172;6.808;2023-12-20T21:11:09;10.70;99.90
4293;DHT22;2160;51.172;6.808;2023-12-20T21:13:37;10.80;99.90